Time;durP1;ratioP1;P1;durP2;ratioP2;P2;SDS_P1;SDS_P2;PMS_P1;PMS_P2;Temp;Humidity;BMP_temperature;BMP_pressure;BME280_temperature;BME280_humidity;BME280_pressure;Samples;Min_cycle;Max_cycle;Signal;HPM_P1;HPM_P2
2023/02/20 00:01:48;;;;;;;37.80;11.23;;;;;;;6.24;100.00;102474.19;5027641;28;20064;-45
2023/02/20 00:04:13;;;;;;;46.58;11.40;;;;;;;6.23;100.00;102473.31;5026091;28;20029;-46
2023/02/20 00:06:39;;;;;;;42.35;11.77;;;;;;;6.25;100.00;102470.56;5026032;28;20456;-46
2023/02/20 00:09:04;;;;;;;39.50;10.85;;;;;;;6.23;100.00;102467.97;5015647;28;20200;-44
2023/02/20 00:11:29;;;;;;;37.85;11.52;;;;;;;6.24;100.00;102471.50;5025375;28;20112;-44
2023/02/20 00:13:55;;;;;;;40.60;10.82;;;;;;;6.22;100.00;102474.31;5022966;28;20069;-47
2023/02/20 00:16:20;;;;;;;41.47;9.38;;;;;;;6.29;100.00;102462.19;5023628;28;20048;-44
2023/02/20 00:18:45;;;;;;;49.60;12.05;;;;;;;6.27;100.00;102449.91;5029506;28;20025;-44
2023/02/20 00:21:11;;;;;;;43.20;10.32;;;;;;;6.28;100.00;102457.78;5028555;28;20037;-44
2023/02/20 00:23:36;;;;;;;46.42;10.70;;;;;;;6.28;100.00;102449.78;5029299;28;20504;-44
2023/02/20 00:26:02;;;;;;;41.50;10.85;;;;;;;6.29;100.00;102456.84;5029703;28;20113;-45
2023/02/20 00:28:28;;;;;;;36.42;11.02;;;;;;;6.31;100.00;102449.53;5028639;28;20040;-44
2023/02/20 00:30:54;;;;;;;48.58;11.40;;;;;;;6.36;100.00;102451.88;5028203;28;20108;-46
2023/02/20 00:33:19;;;;;;;53.22;10.77;;;;;;;6.37;100.00;102449.09;5028530;28;20129;-44
2023/02/20 00:35:44;;;;;;;49.38;11.10;;;;;;;6.36;100.00;102452.72;5029784;28;20025;-45
2023/02/20 00:38:10;;;;;;;50.70;11.45;;;;;;;6.36;100.00;102466.09;5014624;28;20477;-47
2023/02/20 00:40:35;;;;;;;54.70;10.77;;;;;;;6.42;100.00;102445.22;5010318;28;20541;-47
2023/02/20 00:43:01;;;;;;;41.97;10.35;;;;;;;6.42;100.00;102451.41;5009668;28;20033;-46
2023/02/20 00:45:27;;;;;;;49.35;10.43;;;;;;;6.43;100.00;102453.13;5026822;28;20724;-46
2023/02/20 00:47:53;;;;;;;49.70;10.75;;;;;;;6.49;100.00;102463.38;5028719;28;20025;-46
2023/02/20 00:50:18;;;;;;;46.13;9.52;;;;;;;6.49;100.00;102446.47;5028763;28;20125;-47
2023/02/20 00:52:44;;;;;;;47.88;11.23;;;;;;;6.48;100.00;102444.78;5028175;28;20033;-44
2023/02/20 00:55:09;;;;;;;54.25;10.60;;;;;;;6.45;100.00;102435.16;5023608;28;20456;-45
2023/02/20 00:57:35;;;;;;;57.60;10.52;;;;;;;6.45;100.00;102426.25;5027143;28;20034;-45
2023/02/20 01:00:00;;;;;;;66.15;10.15;;;;;;;6.46;100.00;102436.84;5014496;28;20465;-45
2023/02/20 01:02:26;;;;;;;63.17;10.23;;;;;;;6.48;100.00;102434.06;5029363;28;20021;-45
2023/02/20 01:04:52;;;;;;;55.88;9.27;;;;;;;6.51;100.00;102428.50;5028650;28;20060;-44
2023/02/20 01:07:17;;;;;;;71.82;10.77;;;;;;;6.50;100.00;102422.28;5021693;28;20297;-43
2023/02/20 01:09:43;;;;;;;53.15;9.45;;;;;;;6.50;100.00;102426.75;5011697;28;20165;-47
2023/02/20 01:12:08;;;;;;;52.80;9.10;;;;;;;6.50;100.00;102426.75;5010944;28;20042;-45
2023/02/20 01:14:33;;;;;;;59.47;9.00;;;;;;;6.48;100.00;102418.03;5010685;28;20484;-47
2023/02/20 01:16:59;;;;;;;57.25;8.82;;;;;;;6.51;100.00;102412.44;5009847;28;20068;-45
2023/02/20 01:19:24;;;;;;;57.95;8.82;;;;;;;6.49;100.00;102414.38;5009478;28;20018;-45
2023/02/20 01:21:50;;;;;;;58.40;8.70;;;;;;;6.49;100.00;102419.72;5009673;28;20030;-46
2023/02/20 01:24:16;;;;;;;62.05;9.57;;;;;;;6.48;100.00;102418.03;5009308;28;20273;-44
2023/02/20 01:26:47;;;;;;;61.38;10.23;;;;;;;6.45;100.00;102397.72;5012967;28;20087;-45
2023/02/20 01:29:13;;;;;;;54.28;12.07;;;;;;;6.46;100.00;102404.75;5027413;28;20060;-44
2023/02/20 01:31:38;;;;;;;61.70;9.57;;;;;;;6.45;100.00;102396.84;5029320;28;20449;-43
2023/02/20 01:34:04;;;;;;;66.15;11.18;;;;;;;6.47;100.00;102402.94;5029149;28;20045;-45
2023/02/20 01:36:29;;;;;;;73.40;11.30;;;;;;;6.53;100.00;102394.44;5013614;28;20022;-44
2023/02/20 01:38:55;;;;;;;67.63;12.07;;;;;;;6.54;100.00;102397.00;5028419;28;20061;-45
2023/02/20 01:41:22;;;;;;;50.00;10.52;;;;;;;6.57;100.00;102406.59;5032034;28;20473;-45
2023/02/20 01:43:48;;;;;;;96.45;15.63;;;;;;;6.58;100.00;102402.94;5031198;28;20025;-43
2023/02/20 01:46:44;;;;;;;62.05;12.98;;;;;;;6.59;100.00;102399.31;5027437;28;20022;-44
2023/02/20 01:49:11;;;;;;;61.70;12.30;;;;;;;6.62;100.00;102383.03;5007508;28;20505;-48
2023/02/20 01:51:42;;;;;;;69.15;12.63;;;;;;;6.64;100.00;102388.28;5013001;28;20033;-46
2023/02/20 01:54:09;;;;;;;74.03;12.85;;;;;;;6.68;100.00;102379.88;5026909;28;20037;-45
2023/02/20 01:56:34;;;;;;;62.83;12.25;;;;;;;6.69;100.00;102372.69;5031093;28;20037;-45
2023/02/20 01:59:01;;;;;;;62.30;13.05;;;;;;;6.69;100.00;102370.91;5025740;28;20707;-47
2023/02/20 02:01:26;;;;;;;63.40;12.68;;;;;;;6.72;100.00;102367.97;5012760;28;20033;-43
2023/02/20 02:03:56;;;;;;;76.78;13.45;;;;;;;6.73;100.00;102356.28;5012548;28;20168;-43
2023/02/20 02:06:24;;;;;;;63.55;13.27;;;;;;;6.72;100.00;102357.28;5025445;28;20029;-44
2023/02/20 02:08:49;;;;;;;54.50;13.30;;;;;;;6.73;100.00;102342.91;5032211;28;20460;-46
2023/02/20 02:11:17;;;;;;;61.47;13.57;;;;;;;6.72;100.00;102351.94;5030986;28;20036;-46
2023/02/20 02:13:43;;;;;;;64.22;11.63;;;;;;;6.74;100.00;102352.66;5030990;28;20172;-47
2023/02/20 02:16:34;;;;;;;62.92;13.38;;;;;;;6.74;100.00;102341.97;5030962;28;20057;-44
2023/02/20 02:19:37;;;;;;;68.55;13.43;;;;;;;6.73;100.00;102352.78;5020466;28;20025;-46
2023/02/20 02:22:28;;;;;;;61.90;12.02;;;;;;;6.74;100.00;102325.91;5030644;28;20032;-46
2023/02/20 02:25:31;;;;;;;64.63;13.45;;;;;;;6.75;100.00;102340.97;5030785;28;20025;-47
2023/02/20 02:28:24;;;;;;;75.65;13.48;;;;;;;6.78;100.00;102326.50;5017069;28;20089;-44
2023/02/20 02:30:57;;;;;;;76.13;13.85;;;;;;;6.77;100.00;102325.66;5012455;28;20034;-45
2023/02/20 02:33:44;;;;;;;59.05;11.32;;;;;;;6.74;100.00;102333.94;5019656;28;20116;-46
2023/02/20 02:36:30;;;;;;;56.28;9.90;;;;;;;6.74;100.00;102328.59;5019108;28;20161;-46
2023/02/20 02:39:02;;;;;;;65.35;11.32;;;;;;;6.75;100.00;102321.41;5010546;28;20125;-47
2023/02/20 02:41:36;;;;;;;75.00;11.65;;;;;;;6.75;100.00;102332.94;5010770;28;20049;-44
2023/02/20 02:44:23;;;;;;;72.28;13.48;;;;;;;6.81;100.00;102335.13;5011846;28;20022;-45
2023/02/20 02:46:55;;;;;;;63.80;11.07;;;;;;;6.82;100.00;102322.63;5010922;28;20473;-44
2023/02/20 02:50:10;;;;;;;71.95;11.50;;;;;;;6.84;100.00;102319.81;5011759;28;20164;-45
2023/02/20 02:52:45;;;;;;;66.55;11.27;;;;;;;6.84;100.00;102325.16;5008394;28;20037;-44
2023/02/20 02:55:10;;;;;;;65.03;10.35;;;;;;;6.83;100.00;102324.31;5011641;28;20172;-45
2023/02/20 02:57:35;;;;;;;54.80;10.65;;;;;;;6.80;100.00;102314.72;5021903;28;20112;-47
2023/02/20 03:00:09;;;;;;;68.38;10.35;;;;;;;6.82;100.00;102328.81;5030954;28;20108;-44
2023/02/20 03:02:41;;;;;;;64.22;10.32;;;;;;;6.82;100.00;102327.97;5030280;28;20500;-44
2023/02/20 03:05:07;;;;;;;56.85;9.98;;;;;;;6.85;100.00;102324.22;5027986;28;20033;-44
2023/02/20 03:07:35;;;;;;;60.08;9.00;;;;;;;6.87;100.00;102328.44;5018649;28;20080;-45
2023/02/20 03:10:02;;;;;;;;;;;;;;;6.87;100.00;102319.56;5008674;28;20030;-43
2023/02/20 03:12:28;;;;;;;70.85;9.95;;;;;;;6.84;100.00;102322.50;5010354;28;20030;-44
2023/02/20 03:15:34;;;;;;;52.65;9.68;;;;;;;6.84;100.00;102311.78;5026069;28;20117;-43
2023/02/20 03:18:11;;;;;;;60.80;10.27;;;;;;;6.80;100.00;102305.84;5013293;28;20520;-45
2023/02/20 03:21:14;;;;;;;68.38;10.57;;;;;;;6.81;100.00;102320.91;5010040;28;20080;-46
2023/02/20 03:23:42;;;;;;;50.95;9.60;;;;;;;6.79;100.00;102315.69;5006446;28;20044;-46
2023/02/20 03:26:16;;;;;;;62.40;10.95;;;;;;;6.80;100.00;102314.72;5026397;28;20092;-46
2023/02/20 03:28:45;;;;;;;49.42;9.52;;;;;;;6.81;100.00;102318.22;5029307;28;20025;-44
2023/02/20 03:31:25;;;;;;;54.28;10.63;;;;;;;6.81;100.00;102313.72;5017508;28;20084;-44
2023/02/20 03:45:11;;;;;;;63.60;14.45;;;;;;;6.96;100.00;102300.13;5023754;28;20076;-44
2023/02/20 03:47:41;;;;;;;81.32;14.02;;;;;;;6.96;100.00;102297.44;5036336;28;20026;-43
2023/02/20 03:52:53;;;;;;;59.42;12.20;;;;;;;7.00;100.00;102285.50;5033530;28;20064;-44
2023/02/20 03:55:18;;;;;;;53.58;11.45;;;;;;;7.00;100.00;102277.47;5030075;28;20029;-45
2023/02/20 03:57:49;;;;;;;63.70;13.38;;;;;;;7.01;100.00;102271.16;5028828;28;20262;-44
2023/02/20 04:00:18;;;;;;;48.67;11.32;;;;;;;7.03;100.00;102286.13;5028509;28;20077;-45
2023/02/20 04:02:45;;;;;;;55.45;11.73;;;;;;;7.03;100.00;102285.28;5012345;28;20688;-42
2023/02/20 04:05:15;;;;;;;61.03;13.10;;;;;;;7.05;100.00;102283.31;5030442;28;20033;-44
2023/02/20 04:07:59;;;;;;;55.65;12.80;;;;;;;7.04;100.00;102285.13;5020683;28;20030;-43
2023/02/20 04:10:28;;;;;;;64.18;11.45;;;;;;;7.04;100.00;102286.97;5010734;28;20045;-43
2023/02/20 04:12:55;;;;;;;64.47;13.25;;;;;;;7.05;100.00;102280.63;5009343;28;20068;-43
2023/02/20 04:15:21;;;;;;;59.40;12.07;;;;;;;7.05;100.00;102275.28;5025488;28;20489;-44
2023/02/20 04:17:54;;;;;;;52.75;10.73;;;;;;;7.05;100.00;102272.59;5017242;28;20445;-44
2023/02/20 04:20:20;;;;;;;73.00;12.15;;;;;;;7.04;100.00;102277.09;5029273;28;20113;-45
2023/02/20 04:22:47;;;;;;;59.08;12.10;;;;;;;7.03;100.00;102271.88;5028553;28;20573;-44
2023/02/20 04:25:25;;;;;;;45.85;11.15;;;;;;;7.02;100.00;102270.16;5028255;28;20022;-44
2023/02/20 04:27:50;;;;;;;51.20;10.80;;;;;;;7.01;100.00;102265.81;5029019;28;20033;-44
2023/02/20 04:30:16;;;;;;;45.00;11.82;;;;;;;7.00;100.00;102272.09;5028279;28;20103;-45
2023/02/20 04:32:41;;;;;;;46.15;12.13;;;;;;;6.99;100.00;102278.44;5028722;28;20558;-44
2023/02/20 04:35:09;;;;;;;53.20;12.55;;;;;;;6.96;100.00;102273.34;5028131;28;20459;-44
2023/02/20 04:37:34;;;;;;;54.75;12.52;;;;;;;6.96;100.00;102274.19;5018796;28;20053;-44
2023/02/20 04:39:59;;;;;;;54.97;11.85;;;;;;;6.95;100.00;102274.31;5010648;28;20062;-47
2023/02/20 04:42:24;;;;;;;51.65;12.25;;;;;;;6.94;100.00;102280.66;5008384;28;20042;-44
2023/02/20 04:44:50;;;;;;;45.08;13.30;;;;;;;6.93;100.00;102278.94;5008283;28;20041;-47
2023/02/20 04:47:17;;;;;;;48.80;12.63;;;;;;;6.93;100.00;102290.50;5017266;28;20045;-45
2023/02/20 04:49:42;;;;;;;48.05;12.55;;;;;;;6.91;100.00;102273.72;5029367;28;20403;-46
2023/02/20 04:52:08;;;;;;;48.42;13.95;;;;;;;6.89;100.00;102272.13;5029311;28;20030;-45
2023/02/20 04:54:33;;;;;;;53.78;13.00;;;;;;;6.87;100.00;102284.78;5030453;28;20104;-44
2023/02/20 04:56:58;;;;;;;40.13;13.02;;;;;;;6.87;100.00;102284.78;5024051;28;20034;-46
2023/02/20 04:59:24;;;;;;;56.65;14.73;;;;;;;6.85;100.00;102281.41;5009895;28;20118;-46
2023/02/20 05:01:51;;;;;;;51.15;13.90;;;;;;;6.84;100.00;102275.16;5010984;28;20036;-47
2023/02/20 05:04:18;;;;;;;46.90;13.97;;;;;;;6.82;100.00;102287.84;5010133;28;20105;-44
2023/02/20 05:06:50;;;;;;;59.00;15.82;;;;;;;6.80;100.00;102287.94;5011361;28;20084;-46
2023/02/20 05:09:16;;;;;;;64.55;14.80;;;;;;;6.79;100.00;102286.25;5029641;28;20030;-44
2023/02/20 05:11:41;;;;;;;61.47;15.05;;;;;;;6.81;100.00;102276.25;5028141;28;20042;-47
2023/02/20 05:14:07;;;;;;;55.08;14.70;;;;;;;6.79;100.00;102291.59;5019288;28;20025;-44
2023/02/20 05:16:32;;;;;;;49.47;13.45;;;;;;;6.78;100.00;102287.22;5027204;28;20053;-45
2023/02/20 05:18:59;;;;;;;56.30;14.88;;;;;;;6.75;100.00;102287.47;5027007;28;20069;-45
2023/02/20 05:24:10;;;;;;;43.47;12.57;;;;;;;6.73;100.00;102278.69;5023958;28;20052;-46
2023/02/20 05:26:35;;;;;;;60.13;13.85;;;;;;;6.74;100.00;102285.78;5022181;28;20112;-43
2023/02/20 05:29:00;;;;;;;50.15;13.55;;;;;;;6.75;100.00;102276.75;5015057;28;20038;-46
2023/02/20 05:31:26;;;;;;;46.05;12.75;;;;;;;6.74;100.00;102275.06;5014942;28;20033;-45
2023/02/20 05:33:51;;;;;;;40.03;12.63;;;;;;;6.73;100.00;102272.50;5025919;28;20046;-44
2023/02/20 05:36:16;;;;;;;46.55;12.30;;;;;;;6.72;100.00;102281.50;5033576;28;20476;-45
2023/02/20 05:38:46;;;;;;;43.75;12.82;;;;;;;6.70;100.00;102284.28;5030315;28;20422;-44
2023/02/20 05:41:14;;;;;;;51.35;12.13;;;;;;;6.67;100.00;102273.84;5033664;28;20025;-46
2023/02/20 05:43:39;;;;;;;48.45;13.23;;;;;;;6.66;100.00;102281.97;5051241;28;20108;-45
2023/02/20 05:46:04;;;;;;;47.70;13.85;;;;;;;6.66;100.00;102271.28;5041044;28;20099;-44
2023/02/20 05:48:30;;;;;;;49.20;14.00;;;;;;;6.65;100.00;102288.31;5032216;28;20047;-44
2023/02/20 05:50:55;;;;;;;50.97;13.45;;;;;;;6.65;100.00;102277.59;5019045;28;20026;-44
2023/02/20 05:53:20;;;;;;;53.10;13.90;;;;;;;6.63;100.00;102282.22;5013130;28;20084;-45
2023/02/20 05:55:46;;;;;;;52.72;14.43;;;;;;;6.62;100.00;102281.38;5012405;28;20018;-44
2023/02/20 05:58:11;;;;;;;46.97;15.55;;;;;;;6.63;100.00;102275.03;5012463;28;20030;-45
2023/02/20 06:00:36;;;;;;;47.60;15.23;;;;;;;6.62;100.00;102278.69;5015614;28;20022;-45
2023/02/20 06:03:05;;;;;;;63.08;16.08;;;;;;;6.63;100.00;102279.53;5032859;28;20364;-45
2023/02/20 06:05:30;;;;;;;51.70;15.75;;;;;;;6.62;100.00;102281.38;5032751;28;20517;-47
2023/02/20 06:07:56;;;;;;;51.60;15.48;;;;;;;6.60;100.00;102291.34;5031587;28;20113;-44
2023/02/20 06:10:22;;;;;;;58.08;16.60;;;;;;;6.59;100.00;102276.28;5027805;28;20061;-43
2023/02/20 06:12:47;;;;;;;53.75;16.23;;;;;;;6.60;100.00;102277.97;5026092;28;20128;-45
2023/02/20 06:15:12;;;;;;;42.90;13.93;;;;;;;6.60;100.00;102283.31;5014063;28;20030;-46
2023/02/20 06:17:38;;;;;;;55.88;14.77;;;;;;;6.59;100.00;102286.97;5024984;28;20109;-44
2023/02/20 06:20:03;;;;;;;55.80;14.77;;;;;;;6.59;100.00;102276.28;5022160;28;20460;-45
2023/02/20 06:22:28;;;;;;;52.45;15.30;;;;;;;6.60;100.00;102283.31;5041732;28;20483;-48
2023/02/20 06:24:54;;;;;;;49.28;15.43;;;;;;;6.61;100.00;102282.38;5024714;28;20037;-44
2023/02/20 06:27:19;;;;;;;50.45;13.68;;;;;;;6.59;100.00;102279.78;4994647;28;20039;-44
2023/02/20 06:29:48;;;;;;;51.20;14.35;;;;;;;6.62;100.00;102284.06;5020370;28;20119;-47
2023/02/20 06:32:13;;;;;;;54.17;15.43;;;;;;;6.62;100.00;102289.41;5025025;28;20284;-45
2023/02/20 06:34:38;;;;;;;51.67;15.77;;;;;;;6.62;100.00;102280.53;5025972;28;20065;-44
2023/02/20 06:37:04;;;;;;;56.75;14.80;;;;;;;6.63;100.00;102276.88;5025331;28;20041;-43
2023/02/20 06:39:31;;;;;;;44.38;16.40;;;;;;;6.62;100.00;102285.88;5025427;28;20563;-46
2023/02/20 06:41:56;;;;;;;49.05;15.20;;;;;;;6.61;100.00;102282.38;5024841;28;20048;-44
2023/02/20 06:44:21;;;;;;;41.90;13.77;;;;;;;6.63;100.00;102277.72;5025857;28;20026;-45
2023/02/20 06:46:47;;;;;;;47.05;14.80;;;;;;;6.63;100.00;102276.88;5024151;28;20064;-44
2023/02/20 06:49:13;;;;;;;61.28;14.55;;;;;;;6.62;100.00;102273.34;5025491;28;20079;-46
2023/02/20 06:51:39;;;;;;;43.47;14.13;;;;;;;6.63;100.00;102276.88;5026535;28;20111;-48
2023/02/20 06:54:05;;;;;;;55.15;14.23;;;;;;;6.62;100.00;102278.69;5024461;28;20052;-45
2023/02/20 06:56:33;;;;;;;51.88;13.45;;;;;;;6.60;100.00;102278.81;5025394;28;20065;-46
2023/02/20 06:58:59;;;;;;;52.33;14.52;;;;;;;6.62;100.00;102270.69;5025219;28;20385;-45
2023/02/20 07:01:27;;;;;;;37.60;13.20;;;;;;;6.62;100.00;102281.38;5022811;28;20064;-44
2023/02/20 07:03:54;;;;;;;45.78;13.10;;;;;;;6.64;100.00;102279.44;5022583;28;21439;-44
2023/02/20 07:06:20;;;;;;;44.30;12.20;;;;;;;6.66;100.00;102288.19;5024648;28;20033;-45
2023/02/20 07:08:45;;;;;;;46.33;12.85;;;;;;;6.66;100.00;102282.84;5025505;28;20098;-45
2023/02/20 07:11:11;;;;;;;45.40;13.20;;;;;;;6.69;100.00;102279.06;5025375;28;20033;-44
2023/02/20 07:13:37;;;;;;;41.70;12.55;;;;;;;6.68;100.00;102283.56;5025998;28;20333;-44
2023/02/20 07:16:02;;;;;;;49.28;13.38;;;;;;;6.71;100.00;102290.50;5024018;28;20041;-45
2023/02/20 07:18:27;;;;;;;42.10;12.13;;;;;;;6.74;100.00;102291.13;5025295;28;20256;-46
2023/02/20 07:20:53;;;;;;;49.83;12.82;;;;;;;6.79;100.00;102293.41;5019231;28;20044;-43
2023/02/20 07:23:19;;;;;;;46.22;12.93;;;;;;;6.85;100.00;102300.13;5022884;28;20025;-46
2023/02/20 07:25:44;;;;;;;44.80;13.48;;;;;;;6.87;100.00;102295.47;5022517;28;20588;-45
2023/02/20 07:28:09;;;;;;;42.58;13.20;;;;;;;6.89;100.00;102304.25;5023751;28;20455;-46
2023/02/20 07:30:35;;;;;;;39.50;13.35;;;;;;;6.93;100.00;102293.19;5025179;28;20087;-47
2023/02/20 07:33:00;;;;;;;40.70;12.95;;;;;;;6.96;100.00;102286.72;5019741;28;20037;-44
2023/02/20 07:35:26;;;;;;;45.58;13.20;;;;;;;7.00;100.00;102290.84;5026879;28;20428;-46
2023/02/20 07:37:51;;;;;;;43.72;13.48;;;;;;;7.00;100.00;102281.03;5025419;28;20391;-46
2023/02/20 07:40:17;;;;;;;56.90;14.93;;;;;;;7.04;100.00;102286.97;5026621;28;20450;-43
2023/02/20 07:42:42;;;;;;;39.58;14.30;;;;;;;7.07;100.00;102280.50;5024912;28;20044;-45
2023/02/20 07:45:09;;;;;;;41.65;14.10;;;;;;;7.07;100.00;102289.38;5025605;28;20116;-45
2023/02/20 07:47:35;;;;;;;50.78;15.25;;;;;;;7.08;100.00;102299.09;5024952;28;20060;-45
2023/02/20 07:50:00;;;;;;;46.65;14.70;;;;;;;7.04;100.00;102287.81;5021853;28;20508;-45
2023/02/20 07:52:26;;;;;;;47.63;15.27;;;;;;;7.08;100.00;102290.22;5023799;28;20146;-47
2023/02/20 07:54:51;;;;;;;41.80;15.55;;;;;;;7.05;100.00;102296.69;5023639;28;20568;-44
2023/02/20 07:57:16;;;;;;;44.80;15.48;;;;;;;7.05;100.00;102294.00;5024489;28;20025;-46
2023/02/20 07:59:42;;;;;;;43.63;14.63;;;;;;;7.06;100.00;102293.06;5022665;28;20017;-45
2023/02/20 08:02:07;;;;;;;46.95;14.70;;;;;;;7.07;100.00;102292.06;5024974;28;20028;-44
2023/02/20 08:04:32;;;;;;;46.60;15.13;;;;;;;7.03;100.00;102286.13;5020302;28;20047;-45
2023/02/20 08:06:58;;;;;;;35.70;13.32;;;;;;;7.08;100.00;102292.91;5022128;28;20143;-44
2023/02/20 08:09:23;;;;;;;44.55;15.90;;;;;;;7.13;100.00;102296.91;5023592;28;20041;-48
2023/02/20 08:11:48;;;;;;;41.17;15.75;;;;;;;7.12;100.00;102302.41;5022653;28;20017;-46
2023/02/20 08:14:14;;;;;;;41.55;14.30;;;;;;;7.16;100.00;102301.16;5024025;28;20124;-47
2023/02/20 08:16:40;;;;;;;53.75;14.40;;;;;;;7.18;100.00;102293.88;5022117;28;20026;-45
2023/02/20 08:19:05;;;;;;;46.78;13.85;;;;;;;7.18;100.00;102300.06;5016309;28;20040;-46
2023/02/20 08:21:31;;;;;;;53.42;14.27;;;;;;;7.23;100.00;102286.31;5019042;28;20021;-44
2023/02/20 08:23:56;;;;;;;46.63;13.85;;;;;;;7.15;100.00;102297.66;5012020;28;20022;-45
2023/02/20 08:26:22;;;;;;;37.22;13.77;;;;;;;7.16;100.00;102302.06;5023065;28;20048;-46
2023/02/20 08:28:48;;;;;;;43.33;13.07;;;;;;;7.14;100.00;102303.16;5021062;28;20048;-44
2023/02/20 08:31:13;;;;;;;39.95;10.65;;;;;;;7.15;100.00;102294.13;5022617;28;20232;-43
2023/02/20 08:33:39;;;;;;;43.05;11.98;;;;;;;7.14;100.00;102298.63;5010289;28;20128;-46
2023/02/20 08:36:05;;;;;;;29.15;11.70;;;;;;;7.17;100.00;102287.69;5009921;28;20124;-46
2023/02/20 08:38:33;;;;;;;30.80;10.95;;;;;;;7.20;100.00;102292.78;5017430;28;20492;-45
2023/02/20 08:40:58;;;;;;;;;;;;;;;7.24;100.00;102296.91;5030594;28;20410;-44
2023/02/20 08:43:24;;;;;;;29.20;9.55;;;;;;;7.28;100.00;102289.47;5030055;28;19920;-44
2023/02/20 08:45:50;;;;;;;34.90;10.50;;;;;;;7.33;100.00;102281.06;5024505;28;20378;-45
2023/02/20 08:48:15;;;;;;;35.85;10.13;;;;;;;7.40;100.00;102282.28;5012755;28;20030;-47
2023/02/20 08:50:41;;;;;;;40.28;9.18;;;;;;;7.41;100.00;102283.97;5015208;28;20028;-46
2023/02/20 08:53:06;;;;;;;40.40;8.88;;;;;;;7.41;100.00;102267.91;5020565;28;20342;-49
2023/02/20 08:55:32;;;;;;;32.30;8.73;;;;;;;7.45;100.00;102269.34;5023768;28;20022;-47
2023/02/20 08:57:57;;;;;;;20.30;8.23;;;;;;;7.41;100.00;102267.91;5033792;28;20128;-44
2023/02/20 09:00:22;;;;;;;30.77;8.98;;;;;;;7.46;100.00;102271.06;5033514;28;20117;-46
2023/02/20 09:02:48;;;;;;;38.00;8.57;;;;;;;7.50;100.00;102263.59;5034280;28;20083;-45
2023/02/20 09:05:14;;;;;;;30.25;8.18;;;;;;;7.53;100.00;102260.66;5034161;28;20285;-47
2023/02/20 09:07:40;;;;;;;21.70;8.35;;;;;;;7.57;100.00;102268.34;5034109;28;20030;-45
2023/02/20 09:10:05;;;;;;;31.42;8.15;;;;;;;7.59;100.00;102258.34;5033736;28;20129;-46
2023/02/20 09:12:31;;;;;;;37.15;8.57;;;;;;;7.60;100.00;102260.03;5033626;28;20029;-45
2023/02/20 09:14:59;;;;;;;29.17;8.50;;;;;;;7.65;100.00;102257.81;5033740;28;20026;-45
2023/02/20 09:17:25;;;;;;;31.20;8.55;;;;;;;7.68;100.00;102272.78;5033762;28;20028;-45
2023/02/20 09:19:50;;;;;;;26.67;8.20;;;;;;;7.66;100.00;102266.69;5033723;28;20416;-44
2023/02/20 09:22:21;;;;;;;24.10;8.23;;;;;;;7.68;100.00;102275.47;5033755;28;20037;-46
2023/02/20 09:24:46;;;;;;;27.00;7.63;;;;;;;7.66;100.00;102282.78;5036697;28;20025;-44
2023/02/20 09:27:11;;;;;;;21.83;7.95;;;;;;;7.63;100.00;102286.56;5035749;28;20163;-43
2023/02/20 09:29:39;;;;;;;27.35;7.13;;;;;;;7.56;100.00;102277.34;5035942;28;20365;-44
2023/02/20 09:32:05;;;;;;;;;;;;;;;7.58;100.00;102283.44;5033196;28;20036;-46
2023/02/20 09:34:30;;;;;;;22.52;6.43;;;;;;;7.57;100.00;102295.13;5025997;28;20292;-44
2023/02/20 09:36:55;;;;;;;26.83;7.50;;;;;;;7.62;100.00;102298.28;5027866;28;20521;-43
2023/02/20 09:39:21;;;;;;;25.60;7.43;;;;;;;7.61;100.00;102293.03;5025564;28;20026;-44
2023/02/20 09:41:58;;;;;;;17.02;5.93;;;;;;;7.58;100.00;102286.13;5023530;28;20033;-44
2023/02/20 09:44:45;;;;;;;30.27;7.63;;;;;;;7.56;100.00;102290.75;5013783;28;20033;-45
2023/02/20 09:47:33;;;;;;;24.80;6.73;;;;;;;7.59;100.00;102290.50;5022807;28;20025;-45
2023/02/20 09:50:02;;;;;;;19.05;5.63;;;;;;;7.59;100.00;102285.13;5015012;28;20025;-43
2023/02/20 09:52:28;;;;;;;20.55;6.80;;;;;;;7.63;100.00;102286.56;5012890;28;20034;-46
2023/02/20 09:55:02;;;;;;;17.40;6.47;;;;;;;7.61;100.00;102283.19;5038323;28;20416;-45
2023/02/20 09:57:29;;;;;;;23.35;7.13;;;;;;;7.55;100.00;102286.34;5020095;28;20084;-45
2023/02/20 10:00:13;;;;;;;27.05;8.13;;;;;;;7.61;100.00;102280.50;5029761;28;20132;-44
2023/02/20 10:02:41;;;;;;;18.95;7.15;;;;;;;7.55;100.00;102290.88;5013159;28;20030;-44
2023/02/20 10:05:20;;;;;;;38.72;8.50;;;;;;;7.57;100.00;102284.41;5043322;28;20038;-44
2023/02/20 10:07:46;;;;;;;19.17;7.53;;;;;;;7.60;100.00;102281.47;5030578;28;20133;-45
2023/02/20 10:10:27;;;;;;;33.72;8.85;;;;;;;7.65;100.00;102273.91;5014204;28;20450;-43
2023/02/20 10:13:20;;;;;;;21.35;6.90;;;;;;;7.73;100.00;102285.81;5024802;28;20117;-43
2023/02/20 10:16:03;;;;;;;26.33;7.80;;;;;;;7.77;100.00;102287.28;5027387;28;20037;-46
2023/02/20 10:18:48;;;;;;;23.75;8.20;;;;;;;7.72;100.00;102276.94;5024695;28;20493;-44
2023/02/20 10:21:22;;;;;;;20.05;8.15;;;;;;;7.69;100.00;102266.47;5013490;28;20108;-45
2023/02/20 10:23:51;;;;;;;17.60;7.22;;;;;;;7.77;100.00;102272.03;5019657;28;20036;-45
2023/02/20 10:26:23;;;;;;;35.55;7.78;;;;;;;7.76;100.00;102282.88;5031254;28;20037;-44
2023/02/20 10:28:49;;;;;;;26.08;7.70;;;;;;;7.74;100.00;102269.63;5023050;28;20097;-46
2023/02/20 10:31:40;;;;;;;21.48;7.13;;;;;;;7.80;100.00;102268.25;5021702;28;20469;-43
2023/02/20 10:34:10;;;;;;;30.80;7.43;;;;;;;7.81;100.00;102264.59;5018011;28;20054;-43
2023/02/20 10:36:38;;;;;;;17.38;6.32;;;;;;;7.80;100.00;102266.41;5030600;28;20029;-44
2023/02/20 10:39:15;;;;;;;21.13;7.22;;;;;;;7.89;100.00;102251.38;5026951;28;20041;-46
2023/02/20 10:41:55;;;;;;;27.05;6.28;;;;;;;7.94;100.00;102278.66;5024383;28;20029;-45
2023/02/20 10:44:28;;;;;;;24.23;5.78;;;;;;;7.94;100.00;102277.81;5030002;28;20132;-44
2023/02/20 10:47:13;;;;;;;19.33;5.72;;;;;;;7.95;100.00;102272.28;4995501;28;20033;-45
2023/02/20 10:50:00;;;;;;;17.80;5.50;;;;;;;7.99;100.00;102265.72;5011241;28;20445;-44
2023/02/20 10:52:34;;;;;;;20.23;5.47;;;;;;;7.97;100.00;102262.31;5027514;28;20026;-43
2023/02/20 10:55:23;;;;;;;21.42;5.88;;;;;;;7.96;100.00;102257.09;5017993;28;20029;-44
2023/02/20 10:58:03;;;;;;;17.10;5.53;;;;;;;7.95;100.00;102272.28;5016609;28;20113;-45
2023/02/20 11:00:34;;;;;;;16.17;4.72;;;;;;;7.96;100.00;102263.28;5023451;28;20393;-44
2023/02/20 11:03:05;;;;;;;24.35;5.47;;;;;;;7.93;100.00;102263.56;5020741;28;20018;-45
2023/02/20 11:05:34;;;;;;;28.05;5.50;;;;;;;7.95;100.00;102277.66;5020441;28;20075;-42
2023/02/20 11:07:59;;;;;;;19.05;5.90;;;;;;;7.92;100.00;102261.84;5031152;28;20091;-44
2023/02/20 11:10:24;;;;;;;14.93;4.65;;;;;;;7.94;100.00;102243.81;5017411;28;20032;-44
2023/02/20 11:12:52;;;;;;;28.00;6.00;;;;;;;7.96;100.00;102244.53;5015667;28;20022;-44
2023/02/20 11:15:23;;;;;;;26.73;4.70;;;;;;;7.99;100.00;102236.22;5010796;28;20029;-44
2023/02/20 11:17:51;;;;;;;35.50;5.03;;;;;;;8.01;100.00;102223.53;5011216;28;20022;-47
2023/02/20 11:20:32;;;;;;;22.50;5.70;;;;;;;8.01;100.00;102201.25;5026257;28;20445;-46
2023/02/20 11:22:58;;;;;;;18.33;4.20;;;;;;;8.03;100.00;102191.22;5010725;28;20022;-45
2023/02/20 11:25:34;;;;;;;24.10;5.22;;;;;;;8.06;100.00;102209.75;5011440;28;20022;-47
2023/02/20 11:28:20;;;;;;;20.02;4.53;;;;;;;8.12;100.00;102210.06;5011221;28;20026;-46
2023/02/20 11:30:48;;;;;;;25.35;4.95;;;;;;;8.24;100.00;102207.28;5011711;28;20479;-45
2023/02/20 11:33:25;;;;;;;19.38;4.30;;;;;;;8.38;100.00;102198.91;5085926;27;1254082;-44
2023/02/20 11:36:09;;;;;;;22.88;4.93;;;;;;;8.48;100.00;102194.47;5107648;28;20062;-46
2023/02/20 11:38:35;;;;;;;26.17;5.07;;;;;;;8.52;100.00;102201.25;5089532;28;20032;-46